createdAt,value
2023-05-01T00:01:05.570Z,2.03
2023-05-01T00:03:34.193Z,2.10
2023-05-01T00:06:05.926Z,1.92
2023-05-01T00:08:33.496Z,2.10
2023-05-01T00:11:11.693Z,2.17
2023-05-01T00:13:39.428Z,1.80
2023-05-01T00:16:13.660Z,2.43
2023-05-01T00:18:45.190Z,1.75
2023-05-01T00:21:40.858Z,1.80
2023-05-01T00:24:33.062Z,2.38
2023-05-01T00:27:00.384Z,2.15
2023-05-01T00:29:28.269Z,2.20
2023-05-01T00:31:55.979Z,2.10
2023-05-01T00:37:49.957Z,1.95
2023-05-01T00:40:24.770Z,2.25
2023-05-01T00:42:52.891Z,2.03
2023-05-01T00:45:20.759Z,2.10
2023-05-01T00:47:48.570Z,2.08
2023-05-01T00:50:16.095Z,2.17
2023-05-01T00:52:43.736Z,2.10
2023-05-01T00:55:11.195Z,2.00
2023-05-01T00:57:38.571Z,2.35
2023-05-01T01:00:11.874Z,2.30
2023-05-01T01:02:39.330Z,2.50
2023-05-01T01:05:07.157Z,2.20
2023-05-01T01:08:19.010Z,2.57
2023-05-01T01:11:31.778Z,2.05
2023-05-01T01:14:09.442Z,2.13
2023-05-01T01:16:49.066Z,2.15
2023-05-01T01:19:19.493Z,2.63
2023-05-01T01:21:57.903Z,2.73
2023-05-01T01:24:59.402Z,2.60
2023-05-01T01:27:42.249Z,2.28
2023-05-01T01:30:32.394Z,2.78
2023-05-01T01:33:22.717Z,2.80
2023-05-01T01:36:05.555Z,2.87
2023-05-01T01:38:48.720Z,2.60
2023-05-01T01:41:28.047Z,2.92
2023-05-01T01:44:22.997Z,2.83
2023-05-01T01:46:53.501Z,3.15
2023-05-01T01:49:24.897Z,2.47
2023-05-01T01:51:53.888Z,2.78
2023-05-01T01:54:27.481Z,2.78
2023-05-01T01:56:58.595Z,3.28
2023-05-01T01:59:30.804Z,4.20
2023-05-01T02:04:47.380Z,3.30
2023-05-01T02:07:16.799Z,3.42
2023-05-01T02:09:46.365Z,2.80
2023-05-01T02:15:57.256Z,3.63
2023-05-01T02:18:29.247Z,3.50
2023-05-01T02:20:59.073Z,3.28
2023-05-01T02:24:11.237Z,2.60
2023-05-01T02:26:43.405Z,4.15
2023-05-01T02:29:11.890Z,3.23
2023-05-01T02:31:39.380Z,3.47
2023-05-01T02:34:06.848Z,4.68
2023-05-01T02:36:34.620Z,4.03
2023-05-01T02:39:02.732Z,3.70
2023-05-01T02:41:31.569Z,4.37
2023-05-01T02:44:05.083Z,4.00
2023-05-01T02:46:37.700Z,3.95
2023-05-01T02:49:06.848Z,4.68
2023-05-01T02:51:36.059Z,3.97
2023-05-01T02:54:04.145Z,4.47
2023-05-01T02:56:53.196Z,4.40
2023-05-01T02:59:37.827Z,4.65
2023-05-01T03:02:05.545Z,4.10
2023-05-01T03:04:33.043Z,3.90
2023-05-01T03:07:00.678Z,4.50
2023-05-01T03:09:29.808Z,4.43
2023-05-01T03:11:57.208Z,3.70
2023-05-01T03:18:55.992Z,4.22
2023-05-01T03:21:23.906Z,4.17
2023-05-01T03:23:51.245Z,3.90
2023-05-01T03:26:18.693Z,4.10
2023-05-01T03:28:47.007Z,4.22
2023-05-01T03:31:29.750Z,4.70
2023-05-01T03:33:58.737Z,4.27
2023-05-01T03:36:26.208Z,4.28
2023-05-01T03:39:09.064Z,4.25
2023-05-01T03:41:36.597Z,4.78
2023-05-01T03:44:15.008Z,3.97
2023-05-01T03:53:53.107Z,4.13
2023-05-01T03:56:25.988Z,4.00
2023-05-01T03:58:55.686Z,4.10
2023-05-01T04:01:23.049Z,4.63
2023-05-01T04:24:40.377Z,5.15
2023-05-01T04:27:09.186Z,4.32
2023-05-01T04:29:37.226Z,4.80
2023-05-01T04:32:05.363Z,4.63
2023-05-01T04:34:33.370Z,4.72
2023-05-01T04:37:02.173Z,4.28
2023-05-01T04:40:17.020Z,5.18
2023-05-01T04:42:44.514Z,4.38
2023-05-01T04:45:16.140Z,4.87
2023-05-01T04:47:44.123Z,5.80
2023-05-01T04:50:12.045Z,5.28
2023-05-01T04:52:39.844Z,5.28
2023-05-01T04:55:08.215Z,5.70
2023-05-01T05:01:47.379Z,4.88
2023-05-01T05:14:35.275Z,4.37
2023-05-01T05:17:02.544Z,4.25
2023-05-01T05:19:43.027Z,4.13
2023-05-01T05:25:11.842Z,4.00
2023-05-01T05:55:28.711Z,3.78
2023-05-01T05:57:56.239Z,4.22
2023-05-01T06:14:43.847Z,4.00
2023-05-01T06:20:31.646Z,3.70
2023-05-01T06:22:59.434Z,3.65
2023-05-01T06:25:26.910Z,3.95
2023-05-01T07:06:22.960Z,4.10
2023-05-01T07:15:45.948Z,5.15
2023-05-01T07:18:17.750Z,3.97
2023-05-01T07:20:45.853Z,4.33
2023-05-01T07:27:10.677Z,4.03
2023-05-01T07:29:41.432Z,4.22
2023-05-01T07:32:09.051Z,4.28
2023-05-01T07:34:36.967Z,3.40
2023-05-01T07:37:05.193Z,4.10
2023-05-01T07:39:32.766Z,4.13
2023-05-01T07:45:27.177Z,4.28
2023-05-01T07:47:54.490Z,3.97
2023-05-01T07:50:22.965Z,4.03
2023-05-01T07:52:50.698Z,4.72
2023-05-01T07:55:19.447Z,3.72
2023-05-01T07:57:47.073Z,3.70
2023-05-01T08:00:15.077Z,3.90
2023-05-01T08:02:42.618Z,4.90
2023-05-01T08:05:10.587Z,3.58
2023-05-01T08:07:41.277Z,3.92
2023-05-01T08:13:35.398Z,4.00
2023-05-01T08:16:27.271Z,3.92
2023-05-01T08:18:54.835Z,4.00
2023-05-01T08:25:37.702Z,3.92
2023-05-01T08:28:16.250Z,3.67
2023-05-01T08:30:44.742Z,4.47
2023-05-01T08:33:13.724Z,4.93
2023-05-01T08:35:41.551Z,3.60
2023-05-01T08:38:09.239Z,5.15
2023-05-01T08:40:41.144Z,3.53
2023-05-01T08:43:08.835Z,5.18
2023-05-01T08:46:19.658Z,4.38
2023-05-01T08:48:48.111Z,4.07
2023-05-01T08:51:50.188Z,4.22
2023-05-01T08:54:20.060Z,4.47
2023-05-01T08:56:48.492Z,4.00
2023-05-01T08:59:16.996Z,3.42
2023-05-01T09:01:47.524Z,3.47
2023-05-01T09:04:32.912Z,3.53
2023-05-01T09:07:04.307Z,3.47
2023-05-01T09:09:53.967Z,3.55
2023-05-01T09:12:30.466Z,3.72
2023-05-01T09:14:58.354Z,4.45
2023-05-01T09:21:36.145Z,3.47
2023-05-01T09:24:06.558Z,4.10
2023-05-01T09:26:37.092Z,3.88
2023-05-01T09:29:12.283Z,3.80
2023-05-01T09:31:40.460Z,3.33
2023-05-01T09:34:09.742Z,3.93
2023-05-01T09:40:11.815Z,3.35
2023-05-01T09:43:18.176Z,3.05
2023-05-01T09:46:02.035Z,3.20
2023-05-01T09:48:32.075Z,2.53
2023-05-01T09:51:50.229Z,2.70
2023-05-01T09:54:42.087Z,2.63
2023-05-01T12:14:56.706Z,4.57
2023-05-01T12:42:17.051Z,4.73
2023-05-01T12:45:02.001Z,4.90
2023-05-01T12:47:39.174Z,5.60
2023-05-01T13:11:34.816Z,4.50
2023-05-01T13:14:32.957Z,3.20
2023-05-01T13:17:48.898Z,4.00
2023-05-01T13:23:56.504Z,3.55
2023-05-01T13:30:04.964Z,4.37
2023-05-01T13:35:58.928Z,5.25
2023-05-01T13:49:34.784Z,4.60
2023-05-01T14:09:19.311Z,3.90
2023-05-01T16:36:55.114Z,3.37
2023-05-01T16:39:23.391Z,3.45
2023-05-01T16:41:55.048Z,4.18
2023-05-01T16:44:23.419Z,3.35
2023-05-01T16:46:56.741Z,4.03
2023-05-01T16:49:27.865Z,3.13
2023-05-01T16:55:22.607Z,2.80
2023-05-01T16:57:49.947Z,3.83
2023-05-01T17:00:17.496Z,3.40
2023-05-01T17:02:45.241Z,3.80
2023-05-01T17:05:12.700Z,3.40
2023-05-01T17:07:40.083Z,3.25
2023-05-01T17:10:08.352Z,3.17
2023-05-01T17:12:35.632Z,3.53
2023-05-01T17:15:03.045Z,3.03
2023-05-01T17:17:31.131Z,2.83
2023-05-01T17:20:01.439Z,2.70
2023-05-01T17:22:29.280Z,2.75
2023-05-01T17:25:00.687Z,2.75
2023-05-01T17:27:31.604Z,2.80
2023-05-01T17:29:59.223Z,3.10
2023-05-01T17:32:36.349Z,3.03
2023-05-01T17:35:06.622Z,3.10
2023-05-01T17:37:34.407Z,3.00
2023-05-01T17:40:03.375Z,3.20
2023-05-01T17:43:13.947Z,3.50
2023-05-01T17:45:41.135Z,3.10
2023-05-01T17:48:08.600Z,3.10
2023-05-01T17:50:38.751Z,3.08
2023-05-01T17:53:14.803Z,2.70
2023-05-01T17:55:45.199Z,3.28
2023-05-01T17:58:15.699Z,2.53
2023-05-01T18:00:49.920Z,2.75
2023-05-01T18:03:17.518Z,2.70
2023-05-01T18:05:45.449Z,3.00
2023-05-01T18:08:12.880Z,2.92
2023-05-01T18:10:40.394Z,2.72
2023-05-01T18:13:07.764Z,2.80
2023-05-01T18:15:36.886Z,2.63
2023-05-01T18:18:04.487Z,2.90
2023-05-01T18:20:31.905Z,2.40
2023-05-01T18:22:59.216Z,2.28
2023-05-01T18:25:26.622Z,3.08
2023-05-01T18:27:56.511Z,2.88
2023-05-01T18:30:25.911Z,2.33
2023-05-01T18:32:54.138Z,2.90
2023-05-01T18:35:21.887Z,2.85
2023-05-01T18:37:54.202Z,3.85
2023-05-01T18:40:21.647Z,3.17
2023-05-01T18:42:48.975Z,3.83
2023-05-01T18:45:16.293Z,3.67
2023-05-01T18:47:43.753Z,3.30
2023-05-01T18:53:37.869Z,3.30
2023-05-01T18:56:27.873Z,3.87
2023-05-01T18:59:03.827Z,3.28
2023-05-01T19:04:58.420Z,3.13
2023-05-01T19:11:06.272Z,3.37
2023-05-01T19:13:34.001Z,3.17
2023-05-01T19:16:01.311Z,3.65
2023-05-01T19:18:48.762Z,3.22
2023-05-01T19:21:16.220Z,3.63
2023-05-01T19:23:43.530Z,3.13
2023-05-01T19:26:13.173Z,3.35
2023-05-01T19:28:42.140Z,3.85
2023-05-01T19:31:11.030Z,3.83
2023-05-01T19:33:39.090Z,3.67
2023-05-01T19:36:06.424Z,3.87
2023-05-01T19:38:34.250Z,4.25
2023-05-01T19:41:01.697Z,4.13
2023-05-01T19:43:28.868Z,4.10
2023-05-01T19:45:56.949Z,4.00
2023-05-01T19:48:24.638Z,3.87
2023-05-01T19:50:52.120Z,3.58
2023-05-01T19:53:19.488Z,3.05
2023-05-01T19:55:48.099Z,4.18
2023-05-01T19:58:15.904Z,3.83
2023-05-01T20:00:44.255Z,3.97
2023-05-01T20:03:11.704Z,3.60
2023-05-01T20:05:39.364Z,3.47
2023-05-01T20:08:06.583Z,4.22
2023-05-01T20:10:33.951Z,4.10
2023-05-01T20:13:01.823Z,4.30
2023-05-01T20:15:29.171Z,4.45
2023-05-01T20:17:56.545Z,3.95
2023-05-01T20:20:23.835Z,3.47
2023-05-01T20:22:52.714Z,3.95
2023-05-01T20:28:44.774Z,3.47
2023-05-01T20:31:12.693Z,3.40
2023-05-01T20:33:40.352Z,3.45
2023-05-01T20:36:07.899Z,3.60
2023-05-01T20:38:42.399Z,3.20
2023-05-01T20:41:10.570Z,3.67
2023-05-01T20:43:39.107Z,3.72
2023-05-01T20:46:06.959Z,3.88
2023-05-01T20:48:34.401Z,4.05
2023-05-01T20:51:01.772Z,4.07
2023-05-01T20:53:28.932Z,4.25
2023-05-01T20:55:56.253Z,3.90
2023-05-01T20:58:23.736Z,4.03
2023-05-01T21:00:54.476Z,4.20
2023-05-01T21:03:23.955Z,3.37
2023-05-01T21:05:51.302Z,3.53
2023-05-01T21:08:19.662Z,4.10
2023-05-01T21:10:46.776Z,3.30
2023-05-01T21:13:15.521Z,3.90
2023-05-01T21:15:42.765Z,3.67
2023-05-01T21:18:14.606Z,3.28
2023-05-01T21:20:42.821Z,3.90
2023-05-01T21:23:10.107Z,3.70
2023-05-01T21:25:37.302Z,3.55
2023-05-01T21:28:06.536Z,3.23
2023-05-01T21:30:35.947Z,3.13
2023-05-01T21:33:05.850Z,3.60
2023-05-01T21:35:33.505Z,3.92
2023-05-01T21:38:01.508Z,3.80
2023-05-01T21:40:28.869Z,3.50
2023-05-01T21:42:56.615Z,3.97
2023-05-01T21:45:25.017Z,4.18
2023-05-01T21:47:52.542Z,3.88
2023-05-01T21:50:21.570Z,3.60
2023-05-01T21:52:50.693Z,3.73
2023-05-01T21:55:20.384Z,3.25
2023-05-01T21:57:50.162Z,3.28
2023-05-01T22:00:19.421Z,3.67
2023-05-01T22:02:48.832Z,3.80
2023-05-01T22:05:18.150Z,3.23
2023-05-01T22:07:47.473Z,4.30
2023-05-01T22:10:17.360Z,3.42
2023-05-01T22:12:45.602Z,3.22
2023-05-01T22:15:14.454Z,3.67
2023-05-01T22:17:42.225Z,4.10
2023-05-01T22:20:09.698Z,4.05
2023-05-01T22:22:38.339Z,4.20
2023-05-01T22:25:06.348Z,3.65
2023-05-01T22:27:34.188Z,4.50
2023-05-01T22:30:02.536Z,4.17
2023-05-01T22:32:30.069Z,3.35
2023-05-01T22:34:57.247Z,3.92
2023-05-01T22:37:25.928Z,4.10
2023-05-01T22:39:53.970Z,4.15
2023-05-01T22:42:21.782Z,5.07
2023-05-01T22:44:49.744Z,4.03
2023-05-01T22:47:17.158Z,4.88
2023-05-01T22:49:44.300Z,5.80
2023-05-01T22:52:11.490Z,4.63
2023-05-01T22:54:38.638Z,3.83
2023-05-01T22:57:05.964Z,4.80
2023-05-01T22:59:33.377Z,6.07
2023-05-01T23:02:04.649Z,4.57
2023-05-01T23:04:32.561Z,4.00
2023-05-01T23:07:00.000Z,4.77
2023-05-01T23:09:27.222Z,5.07
2023-05-01T23:11:54.512Z,5.40
2023-05-01T23:14:21.769Z,5.32
2023-05-01T23:16:49.002Z,4.13
2023-05-01T23:19:24.193Z,4.57
2023-05-01T23:22:01.967Z,5.97
2023-05-01T23:24:44.890Z,5.15
2023-05-01T23:27:13.781Z,6.07
2023-05-01T23:29:41.811Z,6.15
2023-05-01T23:32:11.848Z,5.57
2023-05-01T23:34:40.603Z,5.93
2023-05-01T23:37:07.775Z,5.13
2023-05-01T23:39:34.887Z,5.38
2023-05-01T23:42:02.729Z,5.75
2023-05-01T23:44:30.648Z,4.97
2023-05-01T23:46:58.001Z,4.43
2023-05-01T23:49:25.472Z,4.88
2023-05-01T23:51:52.726Z,4.40
2023-05-01T23:54:19.983Z,4.93
2023-05-01T23:56:47.241Z,4.70
2023-05-01T23:59:15.142Z,4.90
